createdAt,value
2018-07-02T00:00:10.102Z,13.10
2018-07-02T00:02:38.609Z,13.00
2018-07-02T00:05:07.379Z,12.90
2018-07-02T00:07:35.876Z,12.90
2018-07-02T00:10:04.835Z,12.90
2018-07-02T00:12:33.332Z,12.80
2018-07-02T00:15:01.835Z,12.80
2018-07-02T00:17:30.292Z,12.80
2018-07-02T00:19:58.761Z,12.80
2018-07-02T00:22:27.202Z,12.70
2018-07-02T00:24:55.654Z,12.60
2018-07-02T00:27:24.089Z,12.60
2018-07-02T00:29:52.555Z,12.60
2018-07-02T00:32:20.995Z,12.50
2018-07-02T00:34:49.464Z,12.60
2018-07-02T00:37:17.909Z,12.50
2018-07-02T00:39:46.372Z,12.40
2018-07-02T00:42:14.812Z,12.30
2018-07-02T00:44:43.306Z,12.30
2018-07-02T00:47:11.743Z,12.30
2018-07-02T00:49:40.214Z,12.10
2018-07-02T00:52:08.682Z,12.10
2018-07-02T00:54:37.136Z,12.10
2018-07-02T00:57:05.612Z,12.00
2018-07-02T00:59:34.059Z,12.10
2018-07-02T01:02:02.499Z,12.00
2018-07-02T01:04:37.484Z,11.90
2018-07-02T01:07:05.946Z,11.90
2018-07-02T01:09:34.436Z,11.80
2018-07-02T01:12:02.873Z,11.80
2018-07-02T01:14:31.332Z,11.80
2018-07-02T01:16:59.816Z,11.70
2018-07-02T01:19:28.274Z,11.60
2018-07-02T01:21:56.718Z,11.60
2018-07-02T01:24:25.175Z,11.50
2018-07-02T01:26:53.639Z,11.30
2018-07-02T01:29:22.086Z,11.20
2018-07-02T01:31:50.539Z,11.30
2018-07-02T01:34:18.979Z,11.20
2018-07-02T01:36:47.464Z,11.20
2018-07-02T01:39:15.907Z,11.10
2018-07-02T01:41:44.372Z,11.00
2018-07-02T01:44:12.816Z,11.00
2018-07-02T01:46:41.279Z,10.90
2018-07-02T01:49:09.713Z,11.00
2018-07-02T01:51:38.179Z,11.00
2018-07-02T01:54:06.623Z,11.00
2018-07-02T01:56:35.080Z,11.00
2018-07-02T01:59:03.567Z,10.90
2018-07-02T02:01:32.016Z,10.90
2018-07-02T02:04:00.467Z,11.00
2018-07-02T02:06:28.955Z,10.90
2018-07-02T02:08:57.442Z,10.70
2018-07-02T02:11:25.870Z,10.70
2018-07-02T02:13:54.362Z,10.60
2018-07-02T02:16:22.810Z,10.60
2018-07-02T02:18:51.234Z,10.50
2018-07-02T02:21:19.695Z,10.50
2018-07-02T02:23:48.126Z,10.50
2018-07-02T02:26:16.575Z,10.50
2018-07-02T02:28:44.986Z,10.50
2018-07-02T02:31:13.428Z,10.40
2018-07-02T02:33:41.872Z,10.40
2018-07-02T02:36:10.323Z,10.50
2018-07-02T02:38:38.759Z,10.50
2018-07-02T02:41:07.206Z,10.50
2018-07-02T02:43:35.644Z,10.40
2018-07-02T02:46:04.119Z,10.20
2018-07-02T02:48:32.559Z,10.00
2018-07-02T02:51:00.975Z,9.90
2018-07-02T02:53:29.429Z,9.80
2018-07-02T02:55:57.845Z,9.80
2018-07-02T02:58:26.295Z,9.70
2018-07-02T03:00:54.724Z,9.70
2018-07-02T03:03:23.155Z,9.60
2018-07-02T03:05:51.572Z,9.60
2018-07-02T03:08:20.027Z,9.60
2018-07-02T03:10:48.489Z,9.50
2018-07-02T03:13:16.931Z,9.50
2018-07-02T03:15:45.328Z,9.40
2018-07-02T03:18:13.853Z,9.40
2018-07-02T03:20:42.295Z,9.50
2018-07-02T03:23:10.741Z,9.50
2018-07-02T03:25:39.161Z,9.50
2018-07-02T03:28:07.692Z,9.60
2018-07-02T03:30:36.114Z,9.60
2018-07-02T03:33:04.548Z,9.60
2018-07-02T03:35:32.976Z,9.70
2018-07-02T03:40:29.531Z,9.80
2018-07-02T03:42:57.967Z,9.80
2018-07-02T03:45:26.446Z,9.90
2018-07-02T03:47:54.875Z,10.10
2018-07-02T03:50:23.317Z,10.40
2018-07-02T03:52:51.760Z,10.70
2018-07-02T03:55:20.486Z,11.00
2018-07-02T03:57:48.904Z,11.00
2018-07-02T04:00:17.348Z,11.20
2018-07-02T04:02:45.783Z,11.40
2018-07-02T04:05:14.231Z,11.70
2018-07-02T04:07:42.697Z,11.90
2018-07-02T04:10:11.157Z,12.20
2018-07-02T04:12:39.588Z,12.30
2018-07-02T04:15:08.027Z,12.40
2018-07-02T04:17:36.449Z,12.50
2018-07-02T04:20:05.064Z,12.60
2018-07-02T04:22:33.479Z,12.80
2018-07-02T04:25:01.945Z,13.10
2018-07-02T04:27:30.372Z,13.50
2018-07-02T04:29:58.827Z,13.80
2018-07-02T04:32:27.259Z,14.10
2018-07-02T04:34:55.720Z,14.30
2018-07-02T04:37:24.167Z,14.50
2018-07-02T04:39:52.604Z,14.70
2018-07-02T04:42:21.054Z,15.00
2018-07-02T04:44:49.475Z,15.20
2018-07-02T04:47:17.912Z,15.50
2018-07-02T04:49:46.357Z,15.80
2018-07-02T04:52:14.823Z,16.00
2018-07-02T04:54:43.252Z,16.10
2018-07-02T04:57:11.793Z,16.30
2018-07-02T04:59:40.252Z,16.60
2018-07-02T05:02:08.700Z,17.00
2018-07-02T05:04:37.139Z,17.40
2018-07-02T05:07:05.647Z,17.90
2018-07-02T05:09:34.117Z,18.30
2018-07-02T05:12:02.552Z,18.70
2018-07-02T05:14:30.958Z,19.10
2018-07-02T05:16:59.420Z,19.60
2018-07-02T05:19:27.836Z,20.20
2018-07-02T05:21:56.267Z,20.90
2018-07-02T05:24:24.670Z,21.80
2018-07-02T05:26:53.105Z,22.90
2018-07-02T05:29:21.514Z,24.30
2018-07-02T05:31:49.942Z,25.60
2018-07-02T05:34:18.588Z,26.30
2018-07-02T05:36:53.502Z,27.10
2018-07-02T05:39:21.902Z,27.50
2018-07-02T05:41:50.331Z,27.60
2018-07-02T05:44:18.767Z,28.00
2018-07-02T05:46:47.203Z,28.50
2018-07-02T05:49:15.628Z,28.70
2018-07-02T05:51:44.025Z,29.10
2018-07-02T05:54:12.456Z,29.00
2018-07-02T05:56:40.872Z,29.40
2018-07-02T05:59:09.293Z,29.30
2018-07-02T06:01:37.696Z,29.50
2018-07-02T06:04:06.155Z,29.50
2018-07-02T06:06:34.591Z,29.60
2018-07-02T06:09:03.163Z,29.40
2018-07-02T06:11:31.579Z,29.20
2018-07-02T06:14:00.016Z,28.90
2018-07-02T06:16:28.441Z,28.80
2018-07-02T06:18:56.868Z,28.60
2018-07-02T06:21:25.292Z,28.50
2018-07-02T06:23:53.735Z,28.40
2018-07-02T06:26:22.200Z,28.50
2018-07-02T06:28:50.632Z,28.40
2018-07-02T06:31:19.031Z,28.50
2018-07-02T06:33:47.472Z,28.50
2018-07-02T06:36:15.890Z,28.60
2018-07-02T06:38:44.422Z,28.50
2018-07-02T06:41:12.828Z,28.60
2018-07-02T06:43:41.273Z,28.40
2018-07-02T06:46:09.711Z,28.00
2018-07-02T06:48:38.148Z,27.60
2018-07-02T06:51:06.880Z,27.40
2018-07-02T06:53:35.313Z,27.10
2018-07-02T06:56:03.787Z,27.00
2018-07-02T06:58:32.254Z,26.70
2018-07-02T07:01:00.688Z,26.40
2018-07-02T07:03:29.106Z,26.50
2018-07-02T07:05:57.535Z,26.50
2018-07-02T07:08:25.964Z,26.60
2018-07-02T07:10:54.391Z,26.90
2018-07-02T07:13:22.808Z,26.60
2018-07-02T07:15:51.236Z,26.50
2018-07-02T07:18:19.664Z,26.10
2018-07-02T07:20:48.097Z,25.30
2018-07-02T07:23:16.500Z,25.40
2018-07-02T07:25:45.011Z,25.20
2018-07-02T07:28:13.408Z,25.40
2018-07-02T07:30:41.844Z,26.00
2018-07-02T07:33:10.243Z,26.50
2018-07-02T07:35:38.674Z,26.30
2018-07-02T07:38:07.094Z,26.10
2018-07-02T07:40:35.516Z,26.30
2018-07-02T07:43:03.959Z,26.60
2018-07-02T07:45:32.399Z,26.60
2018-07-02T07:48:00.836Z,26.60
2018-07-02T07:50:29.267Z,26.40
2018-07-02T07:52:57.688Z,26.00
2018-07-02T07:55:32.669Z,25.80
2018-07-02T07:58:01.120Z,25.90
2018-07-02T08:00:29.553Z,25.60
2018-07-02T08:02:57.971Z,25.60
2018-07-02T08:05:26.402Z,24.90
2018-07-02T08:07:54.836Z,24.90
2018-07-02T08:10:23.333Z,25.40
2018-07-02T08:12:51.712Z,25.60
2018-07-02T08:15:20.163Z,26.00
2018-07-02T08:17:48.571Z,26.60
2018-07-02T08:20:16.984Z,27.00
2018-07-02T08:22:45.412Z,27.10
2018-07-02T08:25:13.835Z,27.10
2018-07-02T08:27:42.296Z,27.20
2018-07-02T08:30:10.736Z,27.30
2018-07-02T08:32:39.177Z,27.20
2018-07-02T08:35:07.611Z,27.40
2018-07-02T08:37:36.085Z,28.00
2018-07-02T08:40:04.860Z,28.40
2018-07-02T08:42:33.304Z,28.90
2018-07-02T08:45:01.721Z,28.90
2018-07-02T08:47:30.168Z,28.70
2018-07-02T08:49:58.652Z,28.70
2018-07-02T08:52:27.078Z,28.60
2018-07-02T08:54:55.519Z,28.70
2018-07-02T08:57:23.985Z,28.50
2018-07-02T08:59:52.392Z,28.40
2018-07-02T09:02:20.827Z,28.60
2018-07-02T09:04:49.238Z,28.80
2018-07-02T09:07:17.783Z,28.40
2018-07-02T09:09:46.329Z,28.30
2018-07-02T09:12:14.767Z,28.70
2018-07-02T09:14:43.413Z,29.20
2018-07-02T09:17:11.687Z,29.10
2018-07-02T09:19:40.100Z,29.10
2018-07-02T09:22:08.534Z,29.20
2018-07-02T09:24:36.943Z,29.50
2018-07-02T09:27:05.403Z,29.90
2018-07-02T09:29:33.852Z,30.10
2018-07-02T09:32:02.288Z,29.30
2018-07-02T09:34:30.875Z,28.60
2018-07-02T09:36:59.289Z,28.20
2018-07-02T09:39:27.806Z,28.10
2018-07-02T09:41:56.155Z,28.10
2018-07-02T09:44:24.619Z,28.60
2018-07-02T09:46:53.055Z,28.70
2018-07-02T09:49:21.484Z,28.70
2018-07-02T09:54:18.039Z,29.00
2018-07-02T09:56:46.459Z,28.80
2018-07-02T09:59:14.902Z,28.40
2018-07-02T10:01:43.332Z,28.40
2018-07-02T10:04:11.757Z,28.80
2018-07-02T10:06:40.244Z,29.40
2018-07-02T10:09:11.088Z,30.10
2018-07-02T10:11:39.574Z,30.20
2018-07-02T10:14:08.115Z,29.90
2018-07-02T10:16:36.838Z,29.70
2018-07-02T10:19:05.320Z,29.20
2018-07-02T10:21:33.927Z,29.10
2018-07-02T10:24:02.620Z,29.30
2018-07-02T10:26:31.064Z,29.60
2018-07-02T10:28:59.581Z,29.40
2018-07-02T10:31:28.066Z,28.80
2018-07-02T10:33:56.437Z,28.80
2018-07-02T10:38:52.982Z,28.80
2018-07-02T10:41:21.408Z,29.10
2018-07-02T10:43:49.816Z,29.70
2018-07-02T10:46:18.238Z,29.60
2018-07-02T10:48:46.652Z,29.20
2018-07-02T10:51:15.084Z,29.00
2018-07-02T10:53:43.486Z,29.10
2018-07-02T10:56:11.968Z,29.40
2018-07-02T10:58:40.415Z,29.50
2018-07-02T11:01:08.835Z,29.30
2018-07-02T11:06:05.391Z,28.40
2018-07-02T11:08:33.824Z,28.70
2018-07-02T11:11:02.287Z,29.10
2018-07-02T11:13:30.676Z,29.00
2018-07-02T11:15:59.120Z,29.10
2018-07-02T11:18:27.525Z,29.20
2018-07-02T11:20:55.969Z,29.60
2018-07-02T11:23:24.371Z,30.30
2018-07-02T11:25:52.788Z,30.70
2018-07-02T11:28:21.201Z,31.00
2018-07-02T11:30:49.636Z,31.10
2018-07-02T11:33:18.040Z,30.60
2018-07-02T11:35:46.457Z,30.60
2018-07-02T11:38:14.875Z,30.90
2018-07-02T11:40:43.293Z,30.90
2018-07-02T11:43:11.727Z,30.90
2018-07-02T11:45:40.239Z,31.10
2018-07-02T11:48:08.709Z,30.60
2018-07-02T11:50:37.121Z,30.50
2018-07-02T11:53:05.591Z,29.80
2018-07-02T11:55:33.991Z,29.30
2018-07-02T11:58:02.428Z,28.80
2018-07-02T12:00:30.832Z,29.00
2018-07-02T12:02:59.287Z,29.50
2018-07-02T12:07:55.850Z,30.10
2018-07-02T12:12:52.399Z,30.90
2018-07-02T12:15:20.858Z,30.90
2018-07-02T12:17:49.280Z,30.60
2018-07-02T12:20:17.711Z,30.60
2018-07-02T12:22:46.224Z,30.80
2018-07-02T12:25:14.636Z,30.60
2018-07-02T12:27:43.060Z,30.70
2018-07-02T12:30:11.492Z,30.90
2018-07-02T12:32:39.924Z,31.10
2018-07-02T12:35:08.360Z,30.80
2018-07-02T12:37:36.804Z,30.60
2018-07-02T12:40:05.259Z,30.30
2018-07-02T12:42:33.673Z,30.40
2018-07-02T12:45:02.309Z,30.50
2018-07-02T12:47:30.726Z,31.00
2018-07-02T12:49:59.155Z,30.90
2018-07-02T12:52:27.589Z,31.10
2018-07-02T12:54:56.014Z,31.30
2018-07-02T12:57:24.422Z,31.40
2018-07-02T12:59:52.853Z,31.10
2018-07-02T13:02:21.287Z,30.60
2018-07-02T13:04:49.760Z,30.70
2018-07-02T13:07:18.188Z,30.70
2018-07-02T13:09:46.660Z,30.50
2018-07-02T13:12:15.096Z,30.40
2018-07-02T13:14:43.666Z,30.50
2018-07-02T13:17:12.001Z,30.80
2018-07-02T13:19:40.444Z,31.00
2018-07-02T13:22:08.856Z,30.90
2018-07-02T13:24:37.309Z,31.00
2018-07-02T13:27:05.735Z,31.20
2018-07-02T13:29:34.177Z,31.30
2018-07-02T13:32:02.621Z,31.40
2018-07-02T13:34:31.045Z,31.40
2018-07-02T13:36:59.507Z,31.20
2018-07-02T13:39:27.927Z,31.00
2018-07-02T13:41:56.409Z,30.80
2018-07-02T13:44:24.786Z,30.30
2018-07-02T13:46:53.215Z,30.00
2018-07-02T13:49:21.640Z,29.90
2018-07-02T13:51:50.138Z,29.70
2018-07-02T13:54:18.543Z,29.60
2018-07-02T13:59:15.110Z,29.40
2018-07-02T14:01:43.542Z,29.20
2018-07-02T14:04:11.964Z,29.40
2018-07-02T14:09:10.187Z,29.90
2018-07-02T14:11:39.401Z,29.90
2018-07-02T14:14:07.862Z,29.80
2018-07-02T14:16:36.450Z,29.80
2018-07-02T14:19:05.369Z,29.90
2018-07-02T14:21:33.807Z,29.90
2018-07-02T14:24:02.231Z,30.10
2018-07-02T14:26:30.690Z,30.40
2018-07-02T14:28:59.103Z,30.50
2018-07-02T14:31:27.547Z,30.50
2018-07-02T14:33:55.965Z,30.30
2018-07-02T14:36:24.431Z,30.10
2018-07-02T14:38:52.864Z,29.60
2018-07-02T14:41:21.306Z,29.20
2018-07-02T14:43:49.747Z,29.20
2018-07-02T14:46:18.172Z,29.10
2018-07-02T14:48:46.605Z,29.30
2018-07-02T14:51:15.030Z,29.70
2018-07-02T14:53:43.513Z,29.80
2018-07-02T14:56:11.982Z,29.70
2018-07-02T14:58:40.420Z,29.60
2018-07-02T15:01:08.848Z,29.60
2018-07-02T15:03:37.272Z,29.30
2018-07-02T15:06:05.779Z,29.10
2018-07-02T15:08:34.234Z,28.90
2018-07-02T15:11:02.647Z,28.80
2018-07-02T15:15:59.240Z,28.70
2018-07-02T15:18:27.683Z,28.50
2018-07-02T15:20:56.106Z,28.60
2018-07-02T15:23:24.536Z,28.80
2018-07-02T15:25:52.956Z,28.80
2018-07-02T15:28:21.388Z,28.80
2018-07-02T15:30:49.798Z,28.80
2018-07-02T15:33:18.231Z,28.70
2018-07-02T15:35:46.680Z,28.30
2018-07-02T15:38:15.119Z,27.70
2018-07-02T15:40:43.556Z,27.60
2018-07-02T15:43:11.979Z,27.60
2018-07-02T15:45:40.463Z,27.70
2018-07-02T15:48:08.898Z,27.80
2018-07-02T15:50:37.495Z,27.70
2018-07-02T15:53:05.959Z,27.60
2018-07-02T15:55:34.416Z,27.70
2018-07-02T15:58:02.930Z,27.80
2018-07-02T16:02:59.475Z,27.90
2018-07-02T16:05:27.911Z,27.80
2018-07-02T16:07:56.368Z,27.60
2018-07-02T16:10:24.794Z,27.50
2018-07-02T16:12:53.216Z,27.50
2018-07-02T16:15:21.691Z,27.50
2018-07-02T16:20:18.419Z,27.40
2018-07-02T16:22:46.718Z,27.20
2018-07-02T16:25:15.139Z,27.20
2018-07-02T16:27:43.539Z,27.20
2018-07-02T16:30:12.013Z,27.10
2018-07-02T16:32:40.607Z,27.10
2018-07-02T16:35:09.028Z,26.90
2018-07-02T16:37:37.552Z,26.80
2018-07-02T16:40:06.220Z,26.60
2018-07-02T16:42:34.660Z,26.60
2018-07-02T16:45:03.388Z,26.50
2018-07-02T16:47:31.823Z,26.50
2018-07-02T16:50:00.665Z,26.50
2018-07-02T16:52:29.295Z,26.50
2018-07-02T16:54:57.936Z,26.40
2018-07-02T16:57:26.415Z,26.40
2018-07-02T16:59:54.833Z,26.30
2018-07-02T17:02:23.389Z,26.30
2018-07-02T17:04:51.977Z,26.20
2018-07-02T17:07:20.435Z,26.20
2018-07-02T17:09:48.871Z,26.20
2018-07-02T17:12:17.344Z,26.10
2018-07-02T17:14:45.755Z,26.00
2018-07-02T17:17:14.216Z,25.90
2018-07-02T17:19:43.002Z,25.80
2018-07-02T17:22:11.485Z,25.80
2018-07-02T17:24:40.005Z,25.70
2018-07-02T17:27:08.444Z,25.60
2018-07-02T17:29:36.859Z,25.60
2018-07-02T17:32:05.308Z,25.60
2018-07-02T17:34:33.731Z,25.50
2018-07-02T17:37:02.170Z,25.50
2018-07-02T17:39:30.604Z,25.40
2018-07-02T17:41:59.032Z,25.30
2018-07-02T17:44:27.472Z,25.20
2018-07-02T17:46:55.912Z,25.10
2018-07-02T17:49:24.350Z,25.00
2018-07-02T17:51:52.918Z,24.90
2018-07-02T17:54:21.353Z,24.80
2018-07-02T17:56:49.790Z,24.70
2018-07-02T17:59:18.215Z,24.60
2018-07-02T18:01:46.644Z,24.60
2018-07-02T18:04:15.111Z,24.50
2018-07-02T18:06:43.527Z,24.40
2018-07-02T18:09:13.079Z,24.30
2018-07-02T18:11:41.527Z,24.20
2018-07-02T18:14:09.973Z,24.10
2018-07-02T18:16:38.396Z,24.00
2018-07-02T18:19:07.059Z,23.90
2018-07-02T18:21:35.605Z,23.70
2018-07-02T18:24:04.192Z,23.60
2018-07-02T18:26:32.604Z,23.50
2018-07-02T18:29:01.035Z,23.40
2018-07-02T18:31:29.461Z,23.30
2018-07-02T18:33:57.879Z,23.10
2018-07-02T18:36:26.324Z,23.00
2018-07-02T18:38:54.747Z,22.90
2018-07-02T18:41:23.154Z,22.80
2018-07-02T18:43:51.579Z,22.60
2018-07-02T18:46:20.009Z,22.60
2018-07-02T18:48:48.472Z,22.50
2018-07-02T18:51:16.904Z,22.30
2018-07-02T18:53:45.340Z,22.20
2018-07-02T18:56:13.795Z,22.00
2018-07-02T18:58:42.204Z,21.90
2018-07-02T19:01:10.644Z,21.80
2018-07-02T19:03:39.107Z,21.60
2018-07-02T19:06:07.575Z,21.40
2018-07-02T19:08:36.004Z,21.30
2018-07-02T19:11:04.458Z,21.10
2018-07-02T19:13:32.887Z,21.00
2018-07-02T19:16:01.364Z,20.80
2018-07-02T19:18:29.799Z,20.60
2018-07-02T19:20:58.239Z,20.40
2018-07-02T19:23:26.668Z,20.20
2018-07-02T19:25:55.108Z,20.10
2018-07-02T19:28:23.539Z,19.90
2018-07-02T19:30:52.007Z,19.80
2018-07-02T19:33:20.430Z,19.70
2018-07-02T19:35:48.862Z,19.50
2018-07-02T19:38:17.279Z,19.40
2018-07-02T19:40:45.785Z,19.20
2018-07-02T19:43:14.220Z,19.10
2018-07-02T19:45:42.679Z,18.90
2018-07-02T19:48:11.093Z,18.70
2018-07-02T19:50:39.507Z,18.60
2018-07-02T19:53:07.963Z,18.50
2018-07-02T19:55:36.384Z,18.40
2018-07-02T19:58:04.871Z,18.30
2018-07-02T20:00:33.280Z,18.20
2018-07-02T20:03:01.708Z,18.00
2018-07-02T20:05:30.151Z,17.90
2018-07-02T20:07:58.615Z,17.80
2018-07-02T20:10:27.052Z,17.70
2018-07-02T20:12:55.479Z,17.70
2018-07-02T20:15:23.915Z,17.60
2018-07-02T20:17:52.339Z,17.50
2018-07-02T20:20:20.752Z,17.50
2018-07-02T20:22:49.222Z,17.30
2018-07-02T20:25:17.664Z,17.30
2018-07-02T20:27:46.110Z,17.20
2018-07-02T20:30:14.517Z,17.10
2018-07-02T20:32:42.998Z,17.10
2018-07-02T20:35:11.442Z,17.00
2018-07-02T20:37:39.883Z,17.00
2018-07-02T20:40:08.336Z,16.90
2018-07-02T20:42:36.831Z,16.80
2018-07-02T20:45:06.052Z,16.80
2018-07-02T20:47:34.495Z,16.70
2018-07-02T20:50:02.959Z,16.50
2018-07-02T20:52:31.368Z,16.40
2018-07-02T20:54:59.833Z,16.40
2018-07-02T20:57:28.259Z,16.40
2018-07-02T20:59:56.699Z,16.40
2018-07-02T21:02:25.120Z,16.20
2018-07-02T21:04:53.552Z,16.10
2018-07-02T21:07:21.962Z,15.90
2018-07-02T21:09:50.415Z,15.70
2018-07-02T21:12:18.820Z,15.70
2018-07-02T21:14:47.274Z,15.60
2018-07-02T21:17:15.681Z,15.40
2018-07-02T21:19:44.160Z,15.30
2018-07-02T21:22:12.562Z,15.20
2018-07-02T21:24:41.006Z,15.20
2018-07-02T21:27:09.457Z,15.10
2018-07-02T21:29:37.932Z,14.90
2018-07-02T21:32:06.371Z,14.70
2018-07-02T21:34:34.840Z,14.60
2018-07-02T21:37:03.304Z,14.50
2018-07-02T21:39:31.727Z,14.60
2018-07-02T21:42:00.150Z,14.60
2018-07-02T21:44:28.636Z,14.60
2018-07-02T21:47:03.559Z,14.70
2018-07-02T21:49:31.995Z,14.70
2018-07-02T21:52:00.427Z,14.70
2018-07-02T21:54:28.876Z,14.80
2018-07-02T21:56:57.300Z,14.80
2018-07-02T21:59:25.731Z,14.90
2018-07-02T22:01:54.186Z,14.90
2018-07-02T22:04:22.611Z,14.90
2018-07-02T22:06:51.075Z,14.80
2018-07-02T22:09:19.504Z,14.70
2018-07-02T22:11:47.972Z,14.60
2018-07-02T22:14:16.401Z,14.50
2018-07-02T22:16:44.831Z,14.50
2018-07-02T22:19:13.251Z,14.40
2018-07-02T22:21:41.687Z,14.40
2018-07-02T22:24:10.104Z,14.30
2018-07-02T22:26:38.531Z,14.30
2018-07-02T22:29:06.965Z,14.20
2018-07-02T22:31:35.412Z,14.00
2018-07-02T22:34:03.848Z,14.00
2018-07-02T22:36:32.307Z,14.10
2018-07-02T22:39:00.714Z,14.20
2018-07-02T22:41:29.299Z,14.20
2018-07-02T22:43:58.230Z,14.00
2018-07-02T22:46:26.816Z,13.90
2018-07-02T22:48:55.255Z,13.80
2018-07-02T22:51:23.667Z,13.70
2018-07-02T22:53:52.434Z,13.50
2018-07-02T22:56:20.871Z,13.40
2018-07-02T22:58:49.308Z,13.30
2018-07-02T23:01:17.711Z,13.20
2018-07-02T23:03:46.139Z,13.30
2018-07-02T23:06:14.536Z,13.40
2018-07-02T23:08:43.006Z,13.50
2018-07-02T23:11:11.408Z,13.50
2018-07-02T23:13:39.856Z,13.40
2018-07-02T23:16:08.293Z,13.30
2018-07-02T23:18:36.739Z,13.10
2018-07-02T23:21:05.201Z,12.90
2018-07-02T23:23:33.623Z,12.60
2018-07-02T23:26:02.077Z,12.40
2018-07-02T23:28:30.511Z,12.40
2018-07-02T23:30:58.928Z,12.50
2018-07-02T23:33:27.373Z,12.50
2018-07-02T23:35:55.779Z,12.60
2018-07-02T23:38:24.218Z,12.70
2018-07-02T23:40:52.620Z,12.70
2018-07-02T23:43:21.055Z,12.60
2018-07-02T23:45:49.468Z,12.40
2018-07-02T23:48:18.735Z,12.20
2018-07-02T23:50:47.157Z,12.20
2018-07-02T23:53:15.589Z,12.20
2018-07-02T23:55:43.998Z,12.30
2018-07-02T23:58:12.423Z,12.30
